Time;durP1;ratioP1;P1;durP2;ratioP2;P2;SDS_P1;SDS_P2;PMS_P1;PMS_P2;Temp;Humidity;BMP_temperature;BMP_pressure;BME280_temperature;BME280_humidity;BME280_pressure;Samples;Min_cycle;Max_cycle;Signal;HPM_P1;HPM_P2
2022/11/22 00:02:17;;;;;;;3.60;2.70;;;;;;;;;;1823664;78;22174;-71
2022/11/22 00:04:45;;;;;;;3.92;2.62;;;;;;;;;;1823783;78;21040;-71
2022/11/22 00:07:11;;;;;;;4.05;2.72;;;;;;;;;;1802086;78;21076;-71
2022/11/22 00:09:38;;;;;;;4.17;2.77;;;;;;;;;;1790790;80;21017;-70
2022/11/22 00:12:04;;;;;;;3.77;2.37;;;;;;;;;;1786000;80;21060;-70
2022/11/22 00:14:31;;;;;;;3.60;2.87;;;;;;;;;;1786536;80;21056;-71
2022/11/22 00:16:57;;;;;;;4.30;2.70;;;;;;;;;;1786386;80;21016;-70
2022/11/22 00:19:23;;;;;;;4.42;2.98;;;;;;;;;;1799176;78;21017;-71
2022/11/22 00:21:50;;;;;;;4.33;2.98;;;;;;;;;;1798571;78;21060;-70
2022/11/22 00:24:17;;;;;;;4.50;2.85;;;;;;;;;;1806688;79;21060;-71
2022/11/22 00:26:44;;;;;;;3.25;2.50;;;;;;;;;;1814206;79;21087;-70
2022/11/22 00:29:12;;;;;;;4.62;2.98;;;;;;;;;;1814360;79;21041;-70
2022/11/22 00:31:40;;;;;;;3.95;2.80;;;;;;;;;;1806000;79;21012;-70
2022/11/22 00:34:06;;;;;;;4.20;2.90;;;;;;;;;;1792487;80;21107;-71
2022/11/22 00:36:33;;;;;;;4.50;2.65;;;;;;;;;;1792570;80;21056;-71
2022/11/22 00:38:59;;;;;;;4.83;2.55;;;;;;;;;;1792745;80;21060;-71
2022/11/22 00:41:26;;;;;;;4.90;2.85;;;;;;;;;;1792980;78;21043;-71
2022/11/22 00:43:52;;;;;;;4.45;3.00;;;;;;;;;;1793406;78;21040;-71
2022/11/22 00:46:18;;;;;;;4.65;3.15;;;;;;;;;;1790696;80;21392;-71
2022/11/22 00:48:44;;;;;;;3.55;2.47;;;;;;;;;;1787032;80;22162;-71
2022/11/22 00:51:11;;;;;;;3.15;2.27;;;;;;;;;;1787562;80;21091;-71
2022/11/22 00:53:37;;;;;;;3.87;2.85;;;;;;;;;;1815100;79;20997;-70
2022/11/22 00:56:03;;;;;;;3.58;2.60;;;;;;;;;;1819513;79;21520;-70
2022/11/22 00:58:29;;;;;;;3.80;2.58;;;;;;;;;;1793677;79;21518;-70
2022/11/22 01:00:56;;;;;;;3.67;2.30;;;;;;;;;;1742788;82;20983;-70
2022/11/22 01:03:22;;;;;;;3.45;2.42;;;;;;;;;;1805395;79;20986;-70
2022/11/22 01:05:48;;;;;;;4.25;2.83;;;;;;;;;;1805714;79;21025;-70
2022/11/22 01:08:14;;;;;;;2.67;2.30;;;;;;;;;;1805768;79;20975;-71
2022/11/22 01:10:41;;;;;;;3.90;2.77;;;;;;;;;;1794444;79;21080;-71
2022/11/22 01:13:09;;;;;;;4.50;2.90;;;;;;;;;;1786830;80;21582;-71
2022/11/22 01:15:35;;;;;;;3.77;2.65;;;;;;;;;;1811649;79;21555;-71
2022/11/22 01:18:02;;;;;;;5.58;3.12;;;;;;;;;;1819044;79;21061;-71
2022/11/22 01:20:29;;;;;;;6.28;3.20;;;;;;;;;;1805931;79;21072;-71
2022/11/22 01:22:57;;;;;;;10.28;3.98;;;;;;;;;;1786846;80;20978;-71
2022/11/22 01:25:23;;;;;;;7.10;3.50;;;;;;;;;;1786491;80;21045;-71
2022/11/22 01:27:49;;;;;;;5.37;3.05;;;;;;;;;;1786708;80;21076;-71
2022/11/22 01:30:16;;;;;;;6.45;3.30;;;;;;;;;;1786808;80;20942;-71
2022/11/22 01:32:44;;;;;;;6.15;3.30;;;;;;;;;;1791295;79;21048;-71
2022/11/22 01:35:10;;;;;;;4.62;2.90;;;;;;;;;;1749403;82;21092;-71
2022/11/22 01:37:38;;;;;;;5.25;2.85;;;;;;;;;;1787132;80;21099;-71
2022/11/22 01:40:05;;;;;;;5.08;3.08;;;;;;;;;;1749051;82;20986;-71
2022/11/22 01:42:43;;;;;;;5.28;3.40;;;;;;;;;;1749564;82;21045;-71
2022/11/22 01:45:26;;;;;;;5.50;2.55;;;;;;;;;;1722546;82;21037;-71
2022/11/22 01:47:52;;;;;;;4.53;2.83;;;;;;;;;;1658597;85;21139;-71
2022/11/22 01:50:18;;;;;;;4.75;2.70;;;;;;;;;;1752703;80;21083;-71
2022/11/22 01:52:45;;;;;;;4.45;3.25;;;;;;;;;;1775771;80;21028;-71
2022/11/22 01:55:11;;;;;;;4.50;3.05;;;;;;;;;;1752877;82;21544;-72
2022/11/22 01:57:38;;;;;;;5.95;3.35;;;;;;;;;;1752980;82;21049;-71
2022/11/22 02:00:06;;;;;;;4.85;3.30;;;;;;;;;;1782221;80;21028;-71
2022/11/22 02:05:22;;;;;;;5.35;3.20;;;;;;;;;;1669826;80;77031;-74
2022/11/22 06:49:44;;;;;;;10.82;7.05;;;;;;;;;;1796685;77;22170;-71
2022/11/22 06:52:11;;;;;;;12.60;7.28;;;;;;;;;;1782123;80;21581;-71
2022/11/22 06:54:37;;;;;;;12.73;6.90;;;;;;;;;;1786778;80;21032;-71
2022/11/22 07:10:11;;;;;;;9.43;6.10;;;;;;;;;;1842045;75;28870;-66
2022/11/22 07:12:37;;;;;;;9.68;6.00;;;;;;;;;;1840865;75;21491;-66
2022/11/22 07:15:03;;;;;;;12.63;6.60;;;;;;;;;;1855230;77;21054;-65
2022/11/22 07:17:30;;;;;;;11.15;6.35;;;;;;;;;;1847590;77;21012;-65
2022/11/22 07:19:56;;;;;;;10.30;5.78;;;;;;;;;;1856759;77;21062;-66
2022/11/22 07:22:23;;;;;;;8.93;5.40;;;;;;;;;;1859254;77;21063;-65
2022/11/22 07:24:49;;;;;;;7.85;5.00;;;;;;;;;;1860626;77;21013;-66
2022/11/22 07:27:16;;;;;;;9.35;5.12;;;;;;;;;;1849811;77;21542;-67
2022/11/22 07:29:42;;;;;;;10.85;5.97;;;;;;;;;;1848987;77;21023;-67
2022/11/22 07:32:09;;;;;;;8.58;5.35;;;;;;;;;;1846601;75;21007;-67
2022/11/22 07:34:35;;;;;;;10.40;6.00;;;;;;;;;;1875020;75;21078;-66
2022/11/22 07:37:01;;;;;;;9.15;5.70;;;;;;;;;;1860957;75;21482;-66
2022/11/22 07:39:27;;;;;;;11.38;6.00;;;;;;;;;;1863408;75;21019;-66
2022/11/22 07:41:53;;;;;;;9.93;5.72;;;;;;;;;;1864778;75;20972;-66
2022/11/22 07:44:20;;;;;;;9.43;5.62;;;;;;;;;;1854324;75;21031;-66
2022/11/22 07:46:48;;;;;;;8.88;5.62;;;;;;;;;;1850650;75;21000;-66
2022/11/22 07:49:15;;;;;;;9.65;5.50;;;;;;;;;;1828116;75;21134;-66
2022/11/22 07:51:41;;;;;;;9.58;5.30;;;;;;;;;;1809811;76;21540;-66
2022/11/22 07:54:09;;;;;;;9.03;5.37;;;;;;;;;;1854769;76;21008;-66
2022/11/22 07:56:35;;;;;;;8.58;5.28;;;;;;;;;;1870636;75;20961;-66
2022/11/22 07:59:01;;;;;;;11.33;5.62;;;;;;;;;;1858734;75;21004;-67
2022/11/22 08:01:28;;;;;;;8.80;5.67;;;;;;;;;;1811913;77;21066;-66
2022/11/22 08:03:55;;;;;;;9.90;5.87;;;;;;;;;;1830896;77;21043;-66
2022/11/22 08:06:21;;;;;;;11.35;6.62;;;;;;;;;;1833878;77;21356;-65
2022/11/22 08:08:47;;;;;;;14.38;7.25;;;;;;;;;;1829115;77;21483;-65
2022/11/22 08:11:13;;;;;;;10.85;6.15;;;;;;;;;;1799942;78;21487;-65
2022/11/22 08:13:42;;;;;;;11.38;5.50;;;;;;;;;;1816779;78;20953;-69
2022/11/22 08:16:10;;;;;;;8.73;5.50;;;;;;;;;;1813677;78;21466;-67
2022/11/22 08:18:36;;;;;;;9.50;5.33;;;;;;;;;;1805599;78;21047;-68
2022/11/22 08:21:05;;;;;;;8.90;5.65;;;;;;;;;;1788357;78;21050;-68
2022/11/22 08:23:31;;;;;;;10.30;6.12;;;;;;;;;;1812853;77;21024;-66
2022/11/22 08:25:58;;;;;;;10.93;5.75;;;;;;;;;;1818761;77;21004;-67
2022/11/22 08:28:24;;;;;;;13.32;6.37;;;;;;;;;;1822054;78;21048;-67
2022/11/22 08:30:51;;;;;;;9.73;6.00;;;;;;;;;;1814402;78;22345;-67
2022/11/22 08:33:17;;;;;;;11.30;6.55;;;;;;;;;;1778944;79;21070;-68
2022/11/22 08:35:43;;;;;;;10.32;5.90;;;;;;;;;;1801188;78;21046;-67
2022/11/22 08:38:09;;;;;;;10.75;5.75;;;;;;;;;;1795111;78;21043;-67
2022/11/22 08:40:36;;;;;;;12.00;5.60;;;;;;;;;;1800649;78;21014;-67
2022/11/22 08:43:02;;;;;;;10.98;5.78;;;;;;;;;;1819688;78;21022;-66
2022/11/22 08:45:28;;;;;;;10.72;5.97;;;;;;;;;;1830684;78;21050;-69
2022/11/22 08:47:56;;;;;;;10.48;6.05;;;;;;;;;;1795754;78;21044;-69
2022/11/22 08:50:23;;;;;;;10.38;5.78;;;;;;;;;;1804410;78;21000;-70
2022/11/22 08:52:49;;;;;;;13.32;6.55;;;;;;;;;;1819672;77;21039;-70
2022/11/22 08:55:15;;;;;;;9.53;5.62;;;;;;;;;;1822170;77;21034;-66
2022/11/22 08:57:41;;;;;;;10.03;5.67;;;;;;;;;;1822434;78;20999;-67
2022/11/22 09:00:10;;;;;;;9.80;5.22;;;;;;;;;;1761335;79;21126;-66
2022/11/22 09:02:37;;;;;;;9.23;5.37;;;;;;;;;;1821784;78;21630;-66
2022/11/22 09:05:04;;;;;;;8.88;4.95;;;;;;;;;;1809548;78;21009;-66
2022/11/22 09:07:31;;;;;;;9.80;5.28;;;;;;;;;;1808880;78;21527;-68
2022/11/22 09:09:57;;;;;;;7.75;5.03;;;;;;;;;;1821629;78;21019;-66
2022/11/22 09:12:25;;;;;;;10.38;5.70;;;;;;;;;;1805676;78;21027;-68
2022/11/22 09:14:51;;;;;;;9.63;5.53;;;;;;;;;;1814220;77;21503;-67
2022/11/22 09:17:17;;;;;;;9.88;5.80;;;;;;;;;;1822850;78;20992;-67
2022/11/22 09:19:45;;;;;;;9.38;6.12;;;;;;;;;;1827612;78;21086;-68
2022/11/22 09:22:11;;;;;;;10.40;6.03;;;;;;;;;;1811906;78;21055;-68
2022/11/22 09:24:39;;;;;;;11.63;6.37;;;;;;;;;;1825564;77;21339;-66
2022/11/22 09:27:05;;;;;;;9.90;5.97;;;;;;;;;;1833155;78;21036;-68
2022/11/22 09:29:31;;;;;;;9.98;5.75;;;;;;;;;;1812291;78;21535;-67
2022/11/22 09:31:57;;;;;;;10.30;6.53;;;;;;;;;;1826780;78;21048;-67
2022/11/22 09:34:23;;;;;;;8.68;4.87;;;;;;;;;;1819814;77;21039;-69
2022/11/22 09:36:50;;;;;;;9.10;5.40;;;;;;;;;;1796914;78;21882;-66
2022/11/22 09:39:16;;;;;;;11.20;6.17;;;;;;;;;;1834413;77;20937;-68
2022/11/22 09:41:56;;;;;;;10.35;6.17;;;;;;;;;;1821555;77;21035;-65
2022/11/22 09:44:24;;;;;;;8.10;4.90;;;;;;;;;;1813689;77;21091;-65
2022/11/22 09:47:05;;;;;;;10.38;5.33;;;;;;;;;;1782250;79;21063;-66
2022/11/22 09:49:34;;;;;;;10.15;5.92;;;;;;;;;;1802047;77;21508;-66
2022/11/22 09:52:21;;;;;;;11.08;6.08;;;;;;;;;;1786096;78;21082;-66
2022/11/22 09:54:55;;;;;;;8.80;5.40;;;;;;;;;;1800496;78;21491;-65
2022/11/22 09:57:22;;;;;;;9.85;6.30;;;;;;;;;;1814221;77;21080;-65
2022/11/22 09:59:50;;;;;;;9.18;5.60;;;;;;;;;;1804992;77;21099;-67
2022/11/22 10:02:18;;;;;;;8.50;5.33;;;;;;;;;;1796430;78;21086;-66
2022/11/22 10:04:52;;;;;;;6.83;5.08;;;;;;;;;;1831325;77;21016;-66
2022/11/22 10:07:26;;;;;;;7.85;5.42;;;;;;;;;;1819698;77;21011;-65
2022/11/22 10:10:06;;;;;;;9.15;5.95;;;;;;;;;;1825972;77;21179;-67
2022/11/22 10:12:34;;;;;;;8.38;5.22;;;;;;;;;;1833605;77;21037;-66
2022/11/22 10:15:05;;;;;;;9.23;5.20;;;;;;;;;;1831219;77;22191;-65
2022/11/22 10:17:42;;;;;;;8.85;5.00;;;;;;;;;;1788468;77;21093;-65
2022/11/22 10:20:13;;;;;;;10.28;5.35;;;;;;;;;;1815425;77;21039;-66
2022/11/22 10:22:40;;;;;;;8.35;5.28;;;;;;;;;;1824644;77;21129;-66
2022/11/22 10:25:20;;;;;;;9.98;5.75;;;;;;;;;;1821827;77;21080;-68
2022/11/22 10:27:53;;;;;;;10.53;6.28;;;;;;;;;;1768726;78;21697;-67
2022/11/22 10:30:20;;;;;;;12.63;6.05;;;;;;;;;;1760013;78;21060;-66
2022/11/22 10:32:57;;;;;;;13.85;7.10;;;;;;;;;;1782336;78;21094;-67
2022/11/22 10:35:31;;;;;;;9.05;6.37;;;;;;;;;;1797971;78;21029;-68
2022/11/22 10:38:09;;;;;;;10.30;5.65;;;;;;;;;;1803169;78;21031;-68
2022/11/22 10:40:50;;;;;;;9.60;6.47;;;;;;;;;;1800610;77;21069;-66
2022/11/22 10:43:21;;;;;;;9.95;5.42;;;;;;;;;;1792538;78;20999;-68
2022/11/22 10:46:06;;;;;;;11.93;6.30;;;;;;;;;;1786340;78;21106;-66
2022/11/22 10:48:52;;;;;;;8.58;4.85;;;;;;;;;;1796190;78;21070;-68
2022/11/22 10:51:29;;;;;;;8.40;5.15;;;;;;;;;;1691327;82;21104;-68
2022/11/22 10:54:15;;;;;;;9.98;5.15;;;;;;;;;;1695406;84;21110;-66
2022/11/22 10:56:45;;;;;;;9.38;5.53;;;;;;;;;;1749472;79;20998;-68
2022/11/22 10:59:13;;;;;;;11.43;6.37;;;;;;;;;;1831654;77;21019;-67
2022/11/22 11:01:42;;;;;;;10.38;5.78;;;;;;;;;;1797047;78;22094;-67
2022/11/22 11:04:09;;;;;;;11.15;5.72;;;;;;;;;;1793727;79;21570;-67
2022/11/22 11:06:39;;;;;;;8.73;5.05;;;;;;;;;;1818541;78;21086;-68
2022/11/22 11:09:11;;;;;;;9.25;6.03;;;;;;;;;;1810389;78;21035;-72
2022/11/22 11:11:40;;;;;;;10.93;6.55;;;;;;;;;;1763508;80;21087;-68
2022/11/22 11:14:09;;;;;;;11.85;6.75;;;;;;;;;;1808774;77;21016;-70
2022/11/22 11:16:36;;;;;;;8.50;5.20;;;;;;;;;;1811715;78;20995;-67
2022/11/22 11:19:06;;;;;;;8.13;4.90;;;;;;;;;;1820688;78;21554;-68
2022/11/22 11:21:33;;;;;;;11.05;5.62;;;;;;;;;;1780555;78;21079;-66
2022/11/22 11:23:59;;;;;;;8.08;5.22;;;;;;;;;;1801676;78;21042;-67
2022/11/22 11:26:27;;;;;;;10.43;6.35;;;;;;;;;;1805886;78;21002;-67
2022/11/22 11:29:12;;;;;;;9.80;5.85;;;;;;;;;;1773132;78;21047;-67
2022/11/22 11:31:42;;;;;;;9.20;5.53;;;;;;;;;;1810324;77;21028;-67
2022/11/22 11:34:15;;;;;;;11.05;6.03;;;;;;;;;;1800263;80;21062;-67
2022/11/22 11:36:41;;;;;;;9.48;5.45;;;;;;;;;;1798277;80;21096;-67
2022/11/22 11:39:09;;;;;;;10.58;6.25;;;;;;;;;;1796687;78;21542;-67
2022/11/22 11:41:35;;;;;;;10.68;5.83;;;;;;;;;;1795560;78;21098;-67
2022/11/22 11:44:03;;;;;;;10.50;6.53;;;;;;;;;;1806214;78;20999;-68
2022/11/22 11:46:31;;;;;;;9.73;5.90;;;;;;;;;;1806020;79;22316;-67
2022/11/22 11:48:59;;;;;;;11.00;5.85;;;;;;;;;;1771480;79;21551;-68
2022/11/22 11:51:30;;;;;;;11.22;5.80;;;;;;;;;;1786074;78;21479;-66
2022/11/22 11:53:58;;;;;;;11.08;6.50;;;;;;;;;;1784711;78;21040;-68
2022/11/22 11:56:29;;;;;;;11.08;6.25;;;;;;;;;;1824173;77;21027;-68
2022/11/22 11:58:56;;;;;;;10.00;6.10;;;;;;;;;;1799744;78;21070;-66
2022/11/22 12:01:22;;;;;;;10.15;5.85;;;;;;;;;;1797211;79;21050;-66
2022/11/22 12:03:52;;;;;;;11.10;6.55;;;;;;;;;;1801710;78;21047;-67
2022/11/22 12:06:18;;;;;;;9.38;5.55;;;;;;;;;;1793234;78;21487;-66
2022/11/22 12:08:45;;;;;;;9.63;5.78;;;;;;;;;;1847500;77;21055;-68
2022/11/22 12:11:13;;;;;;;11.55;6.80;;;;;;;;;;1836550;77;21039;-69
2022/11/22 12:13:41;;;;;;;8.18;5.72;;;;;;;;;;1783345;78;20996;-68
2022/11/22 12:16:09;;;;;;;9.03;5.50;;;;;;;;;;1788475;80;21051;-69
2022/11/22 12:18:47;;;;;;;8.70;4.58;;;;;;;;;;1793473;80;21102;-69
2022/11/22 12:21:22;;;;;;;10.05;4.87;;;;;;;;;;1780575;79;21113;-70
2022/11/22 12:23:55;;;;;;;9.65;5.45;;;;;;;;;;1753840;81;21558;-69
2022/11/22 12:26:21;;;;;;;13.72;7.50;;;;;;;;;;1791651;79;21074;-69
2022/11/22 12:28:47;;;;;;;13.65;7.60;;;;;;;;;;1809296;78;20997;-69
2022/11/22 12:31:18;;;;;;;8.73;5.90;;;;;;;;;;1789552;79;21003;-69
2022/11/22 12:33:46;;;;;;;9.70;6.22;;;;;;;;;;1798479;78;21030;-69
2022/11/22 12:36:23;;;;;;;9.13;5.80;;;;;;;;;;1808082;78;21648;-68
2022/11/22 12:38:50;;;;;;;13.75;6.67;;;;;;;;;;1795452;79;21509;-69
2022/11/22 12:41:19;;;;;;;12.37;6.40;;;;;;;;;;1766873;80;20996;-70
2022/11/22 12:43:46;;;;;;;8.05;5.08;;;;;;;;;;1787948;80;21086;-68
2022/11/22 12:46:13;;;;;;;13.70;7.15;;;;;;;;;;1784766;79;21066;-68
2022/11/22 12:48:44;;;;;;;17.42;7.17;;;;;;;;;;1799295;78;21063;-67
2022/11/22 12:51:12;;;;;;;13.30;7.15;;;;;;;;;;1793512;78;21527;-68
2022/11/22 12:53:40;;;;;;;12.00;5.92;;;;;;;;;;1780801;78;21047;-67
2022/11/22 12:56:23;;;;;;;10.28;6.67;;;;;;;;;;1824406;78;21184;-67
2022/11/22 12:59:08;;;;;;;9.43;5.62;;;;;;;;;;1778871;80;21031;-66
2022/11/22 13:01:43;;;;;;;11.53;6.30;;;;;;;;;;1829595;78;21534;-70
2022/11/22 13:04:11;;;;;;;10.98;6.25;;;;;;;;;;1827214;78;21012;-70
2022/11/22 13:06:48;;;;;;;10.13;6.25;;;;;;;;;;1818332;78;21499;-72
2022/11/22 13:09:16;;;;;;;10.35;5.80;;;;;;;;;;1822033;78;21059;-70
2022/11/22 13:11:48;;;;;;;8.38;5.30;;;;;;;;;;1820712;78;21534;-69
2022/11/22 13:14:17;;;;;;;10.53;5.85;;;;;;;;;;1778994;78;21561;-69
2022/11/22 13:16:43;;;;;;;9.43;5.83;;;;;;;;;;1810958;78;21093;-70
2022/11/22 13:19:13;;;;;;;17.80;7.58;;;;;;;;;;1816096;78;21459;-70
2022/11/22 13:21:53;;;;;;;13.48;6.83;;;;;;;;;;1755692;81;21090;-71
2022/11/22 13:24:27;;;;;;;11.95;6.17;;;;;;;;;;1786931;79;21551;-68
2022/11/22 13:26:58;;;;;;;11.25;5.87;;;;;;;;;;1811080;78;21078;-69
2022/11/22 13:29:25;;;;;;;7.95;5.30;;;;;;;;;;1819464;78;21039;-70
2022/11/22 13:32:10;;;;;;;9.80;6.10;;;;;;;;;;1822312;78;21045;-70
2022/11/22 13:34:42;;;;;;;10.32;5.62;;;;;;;;;;1802831;78;21051;-70
2022/11/22 13:37:15;;;;;;;10.90;5.90;;;;;;;;;;1774124;78;21087;-71
2022/11/22 13:39:42;;;;;;;10.13;6.12;;;;;;;;;;1790921;78;21008;-71
2022/11/22 13:42:11;;;;;;;9.45;5.70;;;;;;;;;;1821881;77;21037;-71
2022/11/22 13:44:41;;;;;;;13.32;6.15;;;;;;;;;;1804105;78;20975;-71
2022/11/22 13:47:15;;;;;;;10.95;5.58;;;;;;;;;;1760420;79;21013;-72
2022/11/22 13:49:46;;;;;;;8.80;5.53;;;;;;;;;;1817134;78;21651;-71
2022/11/22 13:52:18;;;;;;;10.13;5.42;;;;;;;;;;1800515;78;21533;-71
2022/11/22 13:54:52;;;;;;;10.78;5.45;;;;;;;;;;1789585;79;21054;-71
2022/11/22 13:57:36;;;;;;;10.55;6.30;;;;;;;;;;1796913;78;21035;-70
2022/11/22 14:00:14;;;;;;;13.48;5.97;;;;;;;;;;1785725;78;21067;-69
2022/11/22 14:02:48;;;;;;;10.10;5.75;;;;;;;;;;1766590;78;21074;-70
2022/11/22 14:05:21;;;;;;;13.25;6.53;;;;;;;;;;1813443;79;21040;-70
2022/11/22 14:07:52;;;;;;;10.78;6.58;;;;;;;;;;1809191;78;21542;-69
2022/11/22 14:10:38;;;;;;;13.32;6.87;;;;;;;;;;1802031;79;21063;-69
2022/11/22 14:13:15;;;;;;;12.18;6.90;;;;;;;;;;1810748;78;21019;-70
2022/11/22 14:15:46;;;;;;;13.62;7.40;;;;;;;;;;1779664;79;21051;-70
2022/11/22 14:18:14;;;;;;;14.80;7.05;;;;;;;;;;1790570;78;21051;-69
2022/11/22 14:21:01;;;;;;;14.43;7.55;;;;;;;;;;1805716;77;21098;-70
2022/11/22 14:23:36;;;;;;;11.97;6.75;;;;;;;;;;1759141;80;21016;-69
2022/11/22 14:26:22;;;;;;;13.95;6.70;;;;;;;;;;1761141;80;21044;-70
2022/11/22 14:28:59;;;;;;;12.65;6.55;;;;;;;;;;1763819;78;21015;-68
2022/11/22 14:31:27;;;;;;;14.83;7.42;;;;;;;;;;1791278;78;20993;-69
2022/11/22 14:34:11;;;;;;;13.78;6.53;;;;;;;;;;1815880;78;21035;-70
2022/11/22 14:36:37;;;;;;;14.58;6.80;;;;;;;;;;1815710;78;21007;-69
2022/11/22 14:39:05;;;;;;;15.35;7.83;;;;;;;;;;1813210;78;21039;-69
2022/11/22 14:41:40;;;;;;;12.33;6.62;;;;;;;;;;1814202;77;21106;-69
2022/11/22 14:44:11;;;;;;;13.28;6.78;;;;;;;;;;1784919;79;21004;-69
2022/11/22 14:46:59;;;;;;;12.13;6.92;;;;;;;;;;1784203;78;21019;-69
2022/11/22 14:49:31;;;;;;;13.30;6.80;;;;;;;;;;1831357;77;21067;-68
2022/11/22 14:51:59;;;;;;;18.30;9.30;;;;;;;;;;1798248;77;21336;-66
2022/11/22 14:54:28;;;;;;;17.30;7.72;;;;;;;;;;1819486;78;21170;-68
2022/11/22 14:56:56;;;;;;;16.95;8.25;;;;;;;;;;1772842;78;21006;-67
2022/11/22 14:59:36;;;;;;;14.70;8.00;;;;;;;;;;1776200;79;21568;-68
2022/11/22 15:02:04;;;;;;;16.10;8.08;;;;;;;;;;1786285;78;21586;-70
2022/11/22 15:04:50;;;;;;;13.30;7.70;;;;;;;;;;1793390;79;21678;-72
2022/11/22 15:07:21;;;;;;;14.28;7.10;;;;;;;;;;1790220;79;21098;-70
2022/11/22 15:09:55;;;;;;;14.83;8.30;;;;;;;;;;1782255;79;21098;-69
2022/11/22 15:12:42;;;;;;;14.68;8.08;;;;;;;;;;1768614;79;21087;-68
2022/11/22 15:15:25;;;;;;;17.00;8.13;;;;;;;;;;1779603;78;21599;-69
2022/11/22 15:17:53;;;;;;;12.85;7.05;;;;;;;;;;1783172;79;21083;-71
2022/11/22 15:20:38;;;;;;;14.43;7.60;;;;;;;;;;1773128;78;21016;-69
2022/11/22 15:23:12;;;;;;;13.05;7.17;;;;;;;;;;1781592;78;21030;-69
2022/11/22 15:25:40;;;;;;;14.53;7.60;;;;;;;;;;1783161;79;21106;-69
2022/11/22 15:28:13;;;;;;;17.45;8.03;;;;;;;;;;1790127;79;21025;-69
2022/11/22 15:30:40;;;;;;;14.93;7.83;;;;;;;;;;1786518;78;21043;-69
2022/11/22 15:33:13;;;;;;;15.88;8.28;;;;;;;;;;1812342;77;21040;-69
2022/11/22 15:35:50;;;;;;;18.37;8.38;;;;;;;;;;1794126;78;21072;-70
2022/11/22 15:38:16;;;;;;;17.40;8.55;;;;;;;;;;1804299;77;21507;-68
2022/11/22 15:40:43;;;;;;;18.48;10.00;;;;;;;;;;1822632;77;21062;-69
2022/11/22 15:43:11;;;;;;;15.88;7.65;;;;;;;;;;1748190;80;21106;-68
2022/11/22 15:45:39;;;;;;;18.90;8.63;;;;;;;;;;1798970;78;21099;-67
2022/11/22 15:48:08;;;;;;;18.45;9.68;;;;;;;;;;1772319;79;21020;-66
2022/11/22 15:50:34;;;;;;;17.62;8.08;;;;;;;;;;1792677;79;20985;-67
2022/11/22 15:53:20;;;;;;;19.77;8.13;;;;;;;;;;1794941;78;22023;-68
2022/11/22 15:55:54;;;;;;;21.50;9.73;;;;;;;;;;1794091;78;21042;-67
2022/11/22 15:58:20;;;;;;;18.50;8.25;;;;;;;;;;1786968;78;21040;-68
2022/11/22 16:00:46;;;;;;;17.15;9.00;;;;;;;;;;1785275;78;21036;-68
2022/11/22 16:03:21;;;;;;;17.67;10.00;;;;;;;;;;1792092;78;20995;-68
2022/11/22 16:05:48;;;;;;;18.48;9.30;;;;;;;;;;1788379;79;21077;-67
2022/11/22 16:08:15;;;;;;;18.73;9.95;;;;;;;;;;1785176;80;21052;-67
2022/11/22 16:10:43;;;;;;;17.00;9.03;;;;;;;;;;1791852;79;21487;-68
2022/11/22 16:13:20;;;;;;;17.80;9.30;;;;;;;;;;1776928;78;21008;-67
2022/11/22 16:16:05;;;;;;;17.98;8.85;;;;;;;;;;1772026;79;21050;-66
2022/11/22 16:18:32;;;;;;;15.18;7.92;;;;;;;;;;1797374;79;21023;-67
2022/11/22 16:21:06;;;;;;;17.32;9.75;;;;;;;;;;1801629;79;21019;-67
2022/11/22 16:23:33;;;;;;;19.25;9.73;;;;;;;;;;1792335;79;21326;-67
2022/11/22 16:26:23;;;;;;;19.12;9.80;;;;;;;;;;1803119;78;21482;-67
2022/11/22 16:28:52;;;;;;;19.12;10.55;;;;;;;;;;1790847;79;21027;-69
2022/11/22 16:31:20;;;;;;;19.95;9.58;;;;;;;;;;1800295;79;21003;-68
2022/11/22 16:33:47;;;;;;;16.55;9.23;;;;;;;;;;1791966;78;21078;-66
2022/11/22 16:36:14;;;;;;;21.33;9.98;;;;;;;;;;1791509;79;21067;-67
2022/11/22 16:38:40;;;;;;;19.48;9.63;;;;;;;;;;1780133;80;21059;-67
2022/11/22 16:41:17;;;;;;;17.12;9.23;;;;;;;;;;1772346;80;21063;-67
2022/11/22 16:43:43;;;;;;;19.50;10.45;;;;;;;;;;1791768;78;21079;-67
2022/11/22 16:46:13;;;;;;;17.80;9.78;;;;;;;;;;1792497;78;21546;-67
2022/11/22 16:48:40;;;;;;;23.30;11.25;;;;;;;;;;1809781;77;21018;-67
2022/11/22 16:51:08;;;;;;;18.05;10.80;;;;;;;;;;1812596;78;21058;-67
2022/11/22 16:53:42;;;;;;;21.10;12.25;;;;;;;;;;1823138;78;21028;-67
2022/11/22 16:56:10;;;;;;;21.02;11.68;;;;;;;;;;1815527;78;21040;-68
2022/11/22 16:58:37;;;;;;;21.42;10.68;;;;;;;;;;1818483;77;21581;-68
2022/11/22 17:01:03;;;;;;;18.90;10.93;;;;;;;;;;1825737;77;21008;-69
2022/11/22 17:03:31;;;;;;;20.82;10.93;;;;;;;;;;1818956;77;21008;-68
2022/11/22 17:05:57;;;;;;;22.15;10.10;;;;;;;;;;1819151;77;21523;-67
2022/11/22 17:08:23;;;;;;;20.60;10.85;;;;;;;;;;1789665;78;21099;-67
2022/11/22 17:10:51;;;;;;;23.27;11.83;;;;;;;;;;1810247;77;21034;-66
2022/11/22 17:13:19;;;;;;;22.58;10.58;;;;;;;;;;1799888;78;21019;-67
2022/11/22 17:15:46;;;;;;;21.35;10.60;;;;;;;;;;1799705;78;21027;-68
2022/11/22 17:18:12;;;;;;;20.95;9.93;;;;;;;;;;1805855;78;21054;-67
2022/11/22 17:20:38;;;;;;;22.05;10.25;;;;;;;;;;1795970;78;20995;-68
2022/11/22 17:23:06;;;;;;;19.90;10.28;;;;;;;;;;1807406;78;21526;-67
2022/11/22 17:25:33;;;;;;;23.77;10.88;;;;;;;;;;1814005;77;20998;-67
2022/11/22 17:27:59;;;;;;;20.20;9.85;;;;;;;;;;1831863;77;21020;-66
2022/11/22 17:30:26;;;;;;;19.20;9.48;;;;;;;;;;1797028;78;21054;-69
2022/11/22 17:32:52;;;;;;;21.35;9.93;;;;;;;;;;1817521;78;21524;-67
2022/11/22 17:35:18;;;;;;;22.22;11.25;;;;;;;;;;1816218;77;21080;-67
2022/11/22 17:37:44;;;;;;;21.15;10.25;;;;;;;;;;1809299;78;20983;-68
2022/11/22 17:40:12;;;;;;;20.23;9.85;;;;;;;;;;1802816;78;21078;-67
2022/11/22 17:42:39;;;;;;;18.75;9.73;;;;;;;;;;1768243;78;21114;-68
2022/11/22 17:45:06;;;;;;;19.35;10.00;;;;;;;;;;1784408;79;21027;-67
2022/11/22 17:47:34;;;;;;;17.27;9.63;;;;;;;;;;1775036;79;21543;-66
2022/11/22 17:50:00;;;;;;;21.55;9.98;;;;;;;;;;1798203;78;20969;-67
2022/11/22 17:52:27;;;;;;;19.55;9.58;;;;;;;;;;1785515;78;21059;-67
2022/11/22 17:54:53;;;;;;;18.77;9.68;;;;;;;;;;1792892;79;21043;-67
2022/11/22 17:57:20;;;;;;;21.23;10.05;;;;;;;;;;1785665;78;21035;-67
2022/11/22 17:59:46;;;;;;;21.30;10.00;;;;;;;;;;1789809;78;21063;-66
2022/11/22 18:02:12;;;;;;;19.62;9.10;;;;;;;;;;1774699;78;21110;-66
2022/11/22 18:04:41;;;;;;;16.62;8.63;;;;;;;;;;1788913;78;21020;-67
2022/11/22 18:07:07;;;;;;;16.02;8.63;;;;;;;;;;1794052;79;21035;-67
2022/11/22 18:22:37;;;;;;;17.35;9.88;;;;;;;;;;1782812;79;28159;-67
2022/11/22 18:25:04;;;;;;;21.95;10.13;;;;;;;;;;1790159;79;21121;-67
2022/11/22 18:27:32;;;;;;;19.55;11.38;;;;;;;;;;1789614;79;21027;-68
2022/11/22 18:30:00;;;;;;;21.80;12.25;;;;;;;;;;1793850;79;21562;-67
2022/11/22 18:32:27;;;;;;;19.37;11.73;;;;;;;;;;1787291;79;21429;-66
2022/11/22 18:34:53;;;;;;;21.70;12.90;;;;;;;;;;1759080;79;21036;-65
2022/11/22 18:37:19;;;;;;;20.88;11.88;;;;;;;;;;1790792;79;21060;-65
2022/11/22 18:39:45;;;;;;;20.05;10.78;;;;;;;;;;1792773;80;22040;-66
2022/11/22 18:42:13;;;;;;;19.52;11.80;;;;;;;;;;1789827;79;21050;-66
2022/11/22 18:44:39;;;;;;;19.30;12.40;;;;;;;;;;1783242;79;21047;-66
2022/11/22 18:47:05;;;;;;;17.32;10.93;;;;;;;;;;1778242;78;21012;-67
2022/11/22 18:49:30;;;;;;;16.45;9.83;;;;;;;;;;1783852;79;21687;-67
2022/11/22 18:51:57;;;;;;;18.27;10.32;;;;;;;;;;1780138;79;21036;-65
2022/11/22 18:54:23;;;;;;;16.15;8.95;;;;;;;;;;1780035;79;21133;-65
2022/11/22 18:56:51;;;;;;;18.42;8.95;;;;;;;;;;1781271;79;21086;-66
2022/11/22 18:59:17;;;;;;;17.65;10.03;;;;;;;;;;1780123;79;21127;-65
2022/11/22 19:01:43;;;;;;;20.75;9.65;;;;;;;;;;1783585;78;21099;-68
2022/11/22 19:04:12;;;;;;;16.02;8.33;;;;;;;;;;1782242;79;21068;-66
2022/11/22 19:06:39;;;;;;;18.40;9.30;;;;;;;;;;1783483;78;21000;-65
2022/11/22 19:09:05;;;;;;;22.65;11.10;;;;;;;;;;1779434;78;21677;-65
2022/11/22 19:11:32;;;;;;;18.75;8.90;;;;;;;;;;1767269;79;21071;-65
2022/11/22 19:13:58;;;;;;;19.00;9.70;;;;;;;;;;1750238;80;21033;-66
2022/11/22 19:16:26;;;;;;;18.98;8.95;;;;;;;;;;1751144;80;21390;-66
2022/11/22 19:18:54;;;;;;;17.40;8.83;;;;;;;;;;1753772;80;21068;-66
2022/11/22 19:21:20;;;;;;;15.13;8.80;;;;;;;;;;1755933;80;21056;-66
2022/11/22 19:23:48;;;;;;;20.20;9.53;;;;;;;;;;1757828;80;21005;-68
2022/11/22 19:26:19;;;;;;;16.15;8.80;;;;;;;;;;1759032;80;21044;-66
2022/11/22 19:28:45;;;;;;;16.40;8.30;;;;;;;;;;1759318;80;21558;-66
2022/11/22 19:31:13;;;;;;;15.80;8.55;;;;;;;;;;1767285;80;21185;-65
2022/11/22 19:33:39;;;;;;;15.32;8.80;;;;;;;;;;1759862;80;21512;-67
2022/11/22 19:36:06;;;;;;;15.88;8.83;;;;;;;;;;1760529;80;21049;-67
2022/11/22 19:38:32;;;;;;;17.15;8.13;;;;;;;;;;1757486;80;21009;-67
2022/11/22 19:40:58;;;;;;;16.87;8.83;;;;;;;;;;1762766;80;21060;-67
2022/11/22 19:43:28;;;;;;;14.98;8.00;;;;;;;;;;1756474;80;21013;-67
2022/11/22 19:45:57;;;;;;;14.65;7.67;;;;;;;;;;1761302;80;21072;-66
2022/11/22 19:48:23;;;;;;;15.90;8.35;;;;;;;;;;1761167;80;21064;-66
2022/11/22 19:50:49;;;;;;;15.50;8.65;;;;;;;;;;1761852;80;21021;-66
2022/11/22 19:53:15;;;;;;;15.70;8.15;;;;;;;;;;1759130;80;21050;-66
2022/11/22 19:55:41;;;;;;;17.12;8.70;;;;;;;;;;1760859;80;21121;-65
2022/11/22 19:58:08;;;;;;;14.07;7.87;;;;;;;;;;1765088;80;21040;-65